Latest Weather Observations for Friendly Beaches

IDT60801

Issued at 8:01 am EST Sunday 31 May 2015 (issued every 30 minutes, with the page automatically refreshed every 10 minutes)

About weather observations | Map of weather stations | Latest weather observations for TAS | Other Formats
Station Details ID: 092114 Name: FRIENDLY BEACHES Lat: -42.00 Lon: 148.28 Height: 55.0 m
Data from the previous 72 hours. | See also: Recent months at Friendly Beaches
Date/Time
EST
Temp
°C
App
Temp
°C
Dew
Point
Rel
Hum
%
Delta-T
°C
Wind Press
QNH
hPa
Press
MSL
hPa
Rain
since 9 am
mm
Dir
 
Spd
km/h
Gust
km/h
Spd
kts
Gust
kts
31/08:00am 11.5 5.1 3.0 56 3.8 WNW 26 46 14 25 998.6 998.6 0.0
31/07:30am 11.3 4.8 2.9 56 3.7 NW 26 46 14 25 998.4 998.4 0.0
31/07:00am 11.3 5.2 2.9 56 3.7 WNW 24 46 13 25 998.7 998.7 0.0
31/06:35am 11.4 4.6 2.9 56 3.7 WNW 28 50 15 27 998.4 998.4 0.0
31/06:30am 11.3 4.5 2.9 56 3.7 WNW 28 46 15 25 998.5 998.5 0.0
31/06:20am 11.3 4.5 2.9 56 3.7 WNW 28 63 15 34 998.3 998.3 0.0
31/06:00am 11.1 5.8 2.9 57 3.6 WNW 20 44 11 24 998.5 998.5 0.0
31/05:30am 11.2 5.4 2.5 55 3.8 WNW 22 54 12 29 998.9 998.9 0.0
31/05:00am 11.0 6.1 2.3 55 3.8 WNW 17 37 9 20 999.4 999.4 0.0
31/04:30am 11.1 5.9 2.2 54 3.8 WNW 19 46 10 25 999.3 999.3 0.0
31/04:00am 11.1 5.6 1.9 53 3.9 WNW 20 50 11 27 999.5 999.5 0.0
31/03:30am 10.8 5.3 1.6 53 3.9 WNW 20 43 11 23 999.7 999.7 0.0
31/03:00am 11.0 4.7 1.8 53 3.9 NW 24 44 13 24 999.9 999.9 0.0
31/02:39am 11.1 4.0 1.4 51 4.1 NW 28 63 15 34 999.9 999.9 0.0
31/02:30am 10.9 4.8 0.6 49 4.2 NW 22 39 12 21 1000.2 1000.2 0.0
31/02:00am 10.7 5.2 0.7 50 4.2 NW 19 41 10 22 1000.6 1000.7 0.0
31/01:30am 10.8 4.8 0.8 50 4.1 NW 22 50 12 27 1001.0 1001.1 0.0
31/01:00am 10.8 4.7 0.5 49 4.3 NW 22 54 12 29 1001.7 1001.7 0.0
31/12:30am 10.3 4.9 1.2 53 3.8 WNW 19 30 10 16 1002.4 1002.4 0.0
31/12:00am 10.3 4.3 0.9 52 3.9 WNW 22 41 12 22 1002.7 1002.7 0.0
 
Date/Time
EST
Temp
°C
App
Temp
°C
Dew
Point
Rel
Hum
%
Delta-T
°C
Wind Press
QNH
hPa
Press
MSL
hPa
Rain
since 9 am
mm
Dir
 
Spd
km/h
Gust
km/h
Spd
kts
Gust
kts
30/11:30pm 10.1 4.6 0.7 52 3.9 WNW 19 39 10 21 1002.9 1002.9 0.0
30/11:00pm 10.4 4.3 0.7 51 4.0 WNW 22 43 12 23 1003.0 1003.0 0.0
30/10:30pm 10.1 5.1 1.2 54 3.7 WNW 17 32 9 17 1003.4 1003.4 0.0
30/10:00pm 10.2 4.5 0.8 52 3.9 WNW 20 39 11 21 1003.7 1003.7 0.0
30/09:30pm 10.8 3.2 0.5 49 4.2 NW 30 54 16 29 1003.7 1003.7 0.0
30/09:26pm 10.6 3.3 0.3 49 4.2 NW 28 50 15 27 1003.7 1003.7 0.0
30/09:00pm 10.6 4.6 0.9 51 4.0 WNW 22 35 12 19 1003.8 1003.8 0.0
30/08:30pm 10.7 5.3 1.0 51 4.0 NW 19 37 10 20 1003.9 1003.9 0.0
30/08:00pm 11.1 5.3 2.2 54 3.8 WNW 22 35 12 19 1003.7 1003.7 0.0
30/07:30pm 11.3 6.4 2.3 54 3.9 WNW 17 28 9 15 1004.0 1004.0 0.0
30/07:00pm 11.6 6.9 3.1 56 3.8 NW 17 30 9 16 1003.7 1003.7 0.0
30/06:30pm 12.0 7.0 3.8 57 3.7 NW 19 32 10 17 1003.5 1003.5 0.0
30/06:00pm 11.6 8.9 2.9 55 3.8 W 6 11 3 6 1003.6 1003.6 0.0
30/05:30pm 13.0 9.1 3.4 52 4.3 WNW 13 26 7 14 1002.7 1002.7 0.0
30/05:00pm 13.5 7.3 4.1 53 4.3 WNW 26 46 14 25 1001.0 1001.1 0.0
30/04:30pm 13.9 7.5 5.0 55 4.2 WNW 28 54 15 29 1000.8 1000.9 0.0
30/04:00pm 14.1 7.8 5.5 56 4.1 WNW 28 48 15 26 1000.9 1001.0 0.0
30/03:45pm 14.4 8.0 5.0 53 4.4 WNW 28 50 15 27 1000.8 1000.9 0.0
30/03:30pm 14.7 8.8 5.8 55 4.3 WNW 26 46 14 25 1000.7 1000.8 0.0
30/03:00pm 14.6 8.0 6.2 57 4.1 WNW 30 54 16 29 1000.9 1001.0 0.0
30/02:32pm 15.4 8.3 6.2 54 4.5 WNW 33 78 18 42 1000.2 1000.2 0.0
30/02:30pm 15.5 8.9 6.2 54 4.5 WNW 30 57 16 31 1000.2 1000.2 0.0
30/02:13pm 15.1 8.1 5.9 54 4.4 WNW 32 83 17 45 1000.4 1000.5 0.0
30/02:00pm 15.9 7.9 5.5 50 5.0 NW 37 65 20 35 1000.5 1000.6 0.0
30/01:30pm 16.2 9.0 5.8 50 5.0 WNW 33 69 18 37 1000.8 1000.9 0.0
30/01:26pm 16.1 9.0 5.4 49 5.1 WNW 32 69 17 37 1000.7 1000.8 0.0
30/01:00pm 16.3 10.1 6.2 51 5.0 NW 28 48 15 26 1000.8 1000.9 0.0
30/12:30pm 15.7 8.7 6.2 53 4.6 NW 32 61 17 33 1002.4 1002.4 0.0
30/12:14pm 15.8 10.3 6.0 52 4.7 NNW 24 56 13 30 1002.1 1002.1 0.0
30/12:00pm 15.6 10.0 5.5 51 4.9 NW 24 41 13 22 1002.6 1002.6 0.0
30/11:30am 16.6 9.9 5.6 48 5.3 NW 30 48 16 26 1003.3 1003.3 0.0
30/11:00am 15.5 9.3 6.0 53 4.6 NNW 28 48 15 26 1004.3 1004.3 0.0
30/10:36am 14.5 8.3 6.3 58 4.0 NW 28 54 15 29 1004.8 1004.8 0.0
30/10:30am 14.6 10.0 6.4 58 4.0 NNW 20 43 11 23 1005.1 1005.1 0.0
30/10:00am 15.3 11.7 6.6 56 4.3 NW 15 37 8 20 1005.8 1005.8 0.0
30/09:30am 14.5 12.3 6.3 58 4.0 N 7 19 4 10 1006.4 1006.4 0.0
30/09:00am 13.4 10.0 5.8 60 3.6 NW 13 26 7 14 1007.1 1007.1 0.0
30/08:30am 13.2 9.4 5.6 60 3.6 NW 15 28 8 15 1007.7 1007.7 0.0
30/08:00am 12.9 8.2 5.3 60 3.6 NW 19 32 10 17 1007.7 1007.7 0.0
30/07:30am 12.9 7.0 5.6 61 3.4 NW 26 41 14 22 1007.6 1007.6 0.0
30/07:00am 12.8 7.6 5.5 61 3.4 WNW 22 35 12 19 1008.1 1008.1 0.0
30/06:35am 12.9 6.5 5.1 59 3.6 WNW 28 50 15 27 1008.4 1008.4 0.0
30/06:30am 12.8 7.5 5.0 59 3.6 WNW 22 39 12 21 1008.3 1008.3 0.0
30/06:00am 12.7 7.0 4.9 59 3.6 WNW 24 44 13 24 1008.5 1008.5 0.0
30/05:30am 12.5 7.5 4.7 59 3.6 NW 20 41 11 22 1008.5 1008.5 0.0
30/05:00am 12.3 7.5 4.8 60 3.5 WNW 19 35 10 19 1008.7 1008.7 0.0
30/04:30am 12.2 7.4 4.9 61 3.4 WNW 19 43 10 23 1009.2 1009.2 0.0
30/04:00am 12.4 7.5 4.9 60 3.5 WNW 20 33 11 18 1009.3 1009.3 0.0
30/03:30am 12.3 8.2 4.5 59 3.6 NW 15 33 8 18 1009.5 1009.5 0.0
30/03:00am 12.2 6.8 4.4 59 3.6 NW 22 37 12 20 1009.8 1009.8 0.0
30/02:30am 12.0 8.3 4.2 59 3.5 NW 13 30 7 16 1010.7 1010.7 0.0
30/02:00am 11.9 7.4 4.4 60 3.4 NW 17 30 9 16 1011.0 1011.0 0.0
30/01:30am 11.9 7.5 4.6 61 3.3 NW 17 52 9 28 1011.3 1011.3 0.0
30/01:00am 11.9 7.4 4.4 60 3.4 WNW 17 37 9 20 1011.4 1011.4 0.0
30/12:30am 11.7 6.9 4.4 61 3.3 WNW 19 37 10 20 1011.7 1011.7 0.0
30/12:00am 11.3 6.5 4.5 63 3.1 W 19 32 10 17 1012.2 1012.2 0.0
 
Date/Time
EST
Temp
°C
App
Temp
°C
Dew
Point
Rel
Hum
%
Delta-T
°C
Wind Press
QNH
hPa
Press
MSL
hPa
Rain
since 9 am
mm
Dir
 
Spd
km/h
Gust
km/h
Spd
kts
Gust
kts
29/11:30pm 10.9 6.7 3.9 62 3.1 WNW 15 32 8 17 1012.4 1012.4 0.0
29/11:00pm 10.7 6.5 3.7 62 3.1 WNW 15 28 8 15 1012.8 1012.8 0.0
29/10:30pm 10.4 6.9 3.7 63 3.0 WNW 11 24 6 13 1013.0 1013.0 0.0
29/10:00pm 10.3 7.7 3.3 62 3.1 WNW 6 11 3 6 1013.6 1013.6 0.0
29/09:30pm 10.0 7.2 3.3 63 2.9 NNW 7 19 4 10 1013.7 1013.7 0.0
29/09:00pm 10.3 7.6 2.9 60 3.2 WNW 6 13 3 7 1013.9 1013.9 0.0
29/08:30pm 10.9 7.3 3.0 58 3.4 WNW 11 26 6 14 1013.7 1013.7 0.0
29/08:00pm 10.9 7.0 3.2 59 3.4 NW 13 33 7 18 1013.7 1013.7 0.0
29/07:30pm 10.9 5.8 3.2 59 3.4 NW 19 32 10 17 1013.7 1013.7 0.0
29/07:00pm 11.0 6.7 3.3 59 3.4 NW 15 26 8 14 1013.6 1013.6 0.0
29/06:30pm 11.0 6.7 3.3 59 3.4 NW 15 30 8 16 1013.6 1013.6 0.0
29/06:00pm 11.1 7.2 3.4 59 3.4 NW 13 30 7 16 1013.6 1013.6 0.0
29/05:30pm 10.9 7.0 3.2 59 3.4 NW 13 26 7 14 1013.5 1013.5 0.0
29/05:00pm 11.0 7.1 3.3 59 3.4 NW 13 22 7 12 1013.3 1013.3 0.0
29/04:30pm 11.4 7.8 2.9 56 3.7 NW 11 19 6 10 1013.1 1013.1 0.0
29/04:00pm 12.1 7.3 2.6 52 4.1 NW 17 28 9 15 1012.7 1012.7 0.0
29/03:30pm 12.7 8.2 2.3 49 4.5 NW 15 28 8 15 1012.8 1012.8 0.0
29/03:00pm 12.9 7.6 1.9 47 4.8 NW 19 32 10 17 1012.6 1012.6 0.0
29/02:30pm 13.4 8.0 2.3 47 4.9 NW 20 43 11 23 1012.8 1012.8 0.0
29/02:00pm 13.1 7.6 1.8 46 4.9 NW 20 35 11 19 1012.4 1012.4 0.0
29/01:30pm 12.3 8.1 1.6 48 4.6 NW 13 24 7 13 1012.5 1012.5 0.0
29/01:00pm 12.1 7.8 0.8 46 4.7 NW 13 20 7 11 1012.5 1012.5 0.0
29/12:30pm 12.9 9.0 1.3 45 5.0 NW 11 19 6 10 1012.5 1012.5 0.0
29/12:00pm 12.4 8.4 0.5 44 5.0 WNW 11 20 6 11 1012.7 1012.7 0.0
29/11:30am 12.2 8.0 1.5 48 4.6 WNW 13 24 7 13 1012.9 1012.9 0.0
29/11:00am 11.5 7.7 1.5 50 4.2 NW 11 24 6 13 1013.3 1013.3 0.0
29/10:30am 10.8 6.2 1.6 53 3.9 WNW 15 26 8 14 1012.9 1012.9 0.0
29/10:00am 9.7 3.8 1.4 56 3.4 WNW 22 33 12 18 1012.7 1012.7 0.0
29/09:30am 9.2 3.7 0.9 56 3.4 WNW 19 30 10 16 1012.6 1012.6 0.0
29/09:00am 8.4 3.7 1.1 60 3.0 WNW 15 33 8 18 1012.4 1012.4 2.2
29/08:30am 8.0 2.5 0.7 60 2.9 WNW 19 33 10 18 1012.2 1012.2 2.2
29/08:00am 7.4 2.7 0.8 63 2.6 NW 15 24 8 13 1011.8 1011.8 2.2
29/07:30am 7.3 3.6 -0.2 59 2.9 NW 9 13 5 7 1011.3 1011.3 2.2
29/07:00am 7.6 3.9 0.1 59 3.0 WNW 9 19 5 10 1010.8 1010.8 2.2
29/06:30am 7.5 3.6 1.1 64 2.6 W 11 19 6 10 1010.2 1010.2 2.2
29/06:00am 8.1 4.3 1.5 63 2.7 W 11 20 6 11 1009.7 1009.7 2.2
29/05:30am 8.5 2.6 1.9 63 2.7 WNW 22 48 12 26 1008.8 1008.8 2.2
29/05:00am 8.7 2.8 1.8 62 2.9 WNW 22 37 12 20 1007.9 1007.9 2.2
29/04:30am 9.0 2.4 2.3 63 2.8 WNW 26 44 14 24 1007.6 1007.6 2.2
29/04:00am 9.4 2.9 2.7 63 2.9 WNW 26 50 14 27 1007.4 1007.4 2.2
29/03:30am 9.6 2.7 2.7 62 2.9 WNW 28 48 15 26 1007.1 1007.1 2.2
29/03:00am 9.7 2.9 3.0 63 2.9 WNW 28 50 15 27 1006.8 1006.8 2.2
29/02:30am 9.9 3.1 3.0 62 3.0 WNW 28 54 15 29 1006.7 1006.7 2.2
29/02:26am 9.9 3.1 3.0 62 3.0 WNW 28 54 15 29 1006.8 1006.8 2.2
29/02:00am 9.9 4.6 3.0 62 3.0 WNW 20 41 11 22 1007.1 1007.1 2.2
29/01:30am 10.1 4.4 2.7 60 3.2 WNW 22 48 12 26 1006.9 1006.9 2.2
29/01:00am 10.1 5.3 2.5 59 3.3 WNW 17 35 9 19 1006.9 1006.9 2.2
29/12:30am 10.6 4.4 2.4 57 3.5 WNW 24 44 13 24 1006.8 1006.8 2.2
29/12:00am 10.8 5.2 3.4 60 3.3 WNW 22 41 12 22 1006.9 1006.9 2.2
 
Date/Time
EST
Temp
°C
App
Temp
°C
Dew
Point
Rel
Hum
%
Delta-T
°C
Wind Press
QNH
hPa
Press
MSL
hPa
Rain
since 9 am
mm
Dir
 
Spd
km/h
Gust
km/h
Spd
kts
Gust
kts
28/11:30pm 10.8 5.9 4.3 64 2.9 WNW 19 37 10 20 1006.9 1006.9 2.2
28/11:00pm 11.0 6.6 4.7 65 2.9 WNW 17 37 9 20 1006.5 1006.5 2.2
28/10:30pm 11.3 6.3 4.7 64 3.0 WNW 20 39 11 21 1006.4 1006.4 2.2
28/10:00pm 11.7 6.8 5.1 64 3.0 WNW 20 43 11 23 1006.2 1006.2 2.2
28/09:30pm 12.0 7.7 5.4 64 3.1 WNW 17 33 9 18 1006.5 1006.5 2.2
28/09:00pm 12.4 9.2 6.7 68 2.7 NW 13 24 7 13 1006.6 1006.6 2.2
28/08:30pm 11.9 9.8 6.8 71 2.4 NW 7 11 4 6 1006.5 1006.5 2.2
28/08:00pm 11.6 10.1 6.7 72 2.3 N 4 7 2 4 1006.8 1006.8 2.2
28/07:30pm 11.6 9.2 7.1 74 2.2 N 9 17 5 9 1006.4 1006.4 2.2
28/07:00pm 12.3 9.6 7.4 72 2.4 NNW 11 20 6 11 1006.0 1006.0 2.2
28/06:30pm 12.3 11.2 8.4 77 1.9 NW 4 11 2 6 1006.9 1006.9 2.2
28/06:00pm 11.2 9.3 9.1 87 1.1 NNE 9 15 5 8 1006.3 1006.3 2.2
28/05:30pm 11.8 9.9 9.2 84 1.3 N 9 19 5 10 1006.4 1006.4 2.2
28/05:00pm 11.7 8.4 9.4 86 1.2 NW 17 37 9 20 1006.6 1006.6 2.2
28/04:30pm 14.1 10.0 8.5 69 2.8 NW 20 41 11 22 1005.8 1005.8 0.4
28/04:00pm 14.1 11.7 8.5 69 2.8 N 11 22 6 12 1005.5 1005.5 0.2
28/03:30pm 12.9 10.0 9.7 81 1.6 NW 15 24 8 13 1006.3 1006.3 0.2
28/03:00pm 15.2 11.7 8.9 66 3.2 NNW 17 32 9 17 1006.3 1006.3 0.0
28/02:30pm 16.6 11.7 8.3 58 4.2 NNW 24 37 13 20 1006.2 1006.2 0.0
28/02:00pm 16.6 12.0 8.1 57 4.3 NNW 22 46 12 25 1006.4 1006.4 0.0
28/01:34pm 17.7 11.8 7.7 52 5.1 NNW 28 48 15 26 1006.5 1006.5 0.0
28/01:30pm 17.7 12.8 8.3 54 4.8 NNW 24 43 13 23 1006.7 1006.7 0.0
28/01:00pm 18.1 14.0 8.7 54 4.9 NNW 20 39 11 21 1007.3 1007.3 0.0
28/12:30pm 18.2 14.4 9.0 55 4.8 NNW 19 37 10 20 1008.1 1008.1 0.0
28/12:00pm 17.9 14.2 9.3 57 4.5 NNW 19 35 10 19 1008.5 1008.5 0.0
28/11:30am 17.1 13.6 10.2 64 3.7 N 19 35 10 19 1009.0 1009.0 0.0
28/11:00am 17.0 16.1 11.3 69 3.1 NE 7 11 4 6 1009.7 1009.7 0.0
28/10:30am 15.9 14.5 12.3 79 2.0 NNE 11 15 6 8 1010.5 1010.5 0.0
28/10:00am 14.2 13.3 12.6 90 0.9 NNE 9 17 5 9 1011.0 1011.0 0.0
28/09:30am 12.6 11.9 11.5 93 0.6 NNE 6 9 3 5 1011.6 1011.6 0.0
28/09:00am 11.6 10.0 10.3 92 0.7 NNE 9 13 5 7 1011.6 1011.6 1.8
28/08:30am 11.6 9.5 9.9 89 0.9 NNW 11 20 6 11 1011.8 1011.8 1.8

Other Formats:

Comma delimited format used in spreadsheet applications
http://www.bom.gov.au/fwo/IDT60801/IDT60801.94987.axf

JavaScript Object Notation format (JSON) in row-major order
http://www.bom.gov.au/fwo/IDT60801/IDT60801.94987.json